Time;durP1;ratioP1;P1;durP2;ratioP2;P2;SDS_P1;SDS_P2;PMS_P1;PMS_P2;Temp;Humidity;BMP_temperature;BMP_pressure;BME280_temperature;BME280_humidity;BME280_pressure;Samples;Min_cycle;Max_cycle;Signal;HPM_P1;HPM_P2
2022/03/08 00:01:07;;;;;;;44.57;26.50;;;;;;;;;;753087;183;632162;-68
2022/03/08 00:03:33;;;;;;;37.60;27.23;;;;;;;;;;753068;184;636914;-68
2022/03/08 00:05:59;;;;;;;41.57;25.07;;;;;;;;;;750180;186;632016;-68
2022/03/08 00:08:25;;;;;;;45.77;24.60;;;;;;;;;;736654;187;640670;-68
2022/03/08 00:10:51;;;;;;;38.10;24.43;;;;;;;;;;755477;184;632142;-68
2022/03/08 00:13:16;;;;;;;42.60;23.63;;;;;;;;;;757459;184;618345;-68
2022/03/08 00:15:42;;;;;;;41.10;23.80;;;;;;;;;;750435;184;631133;-69
2022/03/08 00:18:08;;;;;;;35.37;23.00;;;;;;;;;;753843;183;626508;-68
2022/03/08 00:20:34;;;;;;;40.00;22.50;;;;;;;;;;756779;184;611678;-69
2022/03/08 00:23:00;;;;;;;34.00;22.67;;;;;;;;;;755255;184;628079;-68
2022/03/08 00:25:26;;;;;;;36.23;22.80;;;;;;;;;;752941;184;626702;-68
2022/03/08 00:27:52;;;;;;;53.03;23.33;;;;;;;;;;752026;185;623806;-68
2022/03/08 00:30:17;;;;;;;39.73;23.13;;;;;;;;;;758202;184;765279;-68
2022/03/08 00:32:43;;;;;;;39.93;22.80;;;;;;;;;;752864;185;631416;-68
2022/03/08 00:35:09;;;;;;;44.40;23.80;;;;;;;;;;753300;184;621751;-69
2022/03/08 00:37:35;;;;;;;43.10;24.00;;;;;;;;;;760211;184;632987;-68
2022/03/08 00:40:01;;;;;;;38.97;23.17;;;;;;;;;;757026;183;796022;-69
2022/03/08 00:42:27;;;;;;;36.90;24.00;;;;;;;;;;755108;183;634653;-69
2022/03/08 00:44:52;;;;;;;39.40;24.50;;;;;;;;;;764099;183;631511;-69
2022/03/08 00:47:18;;;;;;;37.70;22.53;;;;;;;;;;763832;183;621930;-69
2022/03/08 00:49:44;;;;;;;39.87;23.57;;;;;;;;;;760623;184;638741;-69
2022/03/08 00:52:10;;;;;;;39.97;21.67;;;;;;;;;;768046;184;615310;-69
2022/03/08 00:54:36;;;;;;;40.33;24.33;;;;;;;;;;761138;184;631937;-70
2022/03/08 00:57:02;;;;;;;35.93;22.80;;;;;;;;;;756861;185;671814;-68
2022/03/08 00:59:28;;;;;;;41.83;22.73;;;;;;;;;;753137;184;634209;-69
2022/03/08 01:01:54;;;;;;;36.87;21.63;;;;;;;;;;756521;182;617601;-69
2022/03/08 01:04:20;;;;;;;53.53;23.87;;;;;;;;;;752762;183;636576;-69
2022/03/08 01:06:46;;;;;;;48.30;26.87;;;;;;;;;;754609;183;626571;-69
2022/03/08 01:09:12;;;;;;;43.20;26.43;;;;;;;;;;757614;183;614499;-71
2022/03/08 01:11:39;;;;;;;43.00;24.60;;;;;;;;;;750476;183;637557;-69
2022/03/08 01:14:04;;;;;;;47.80;27.17;;;;;;;;;;753973;184;631534;-69
2022/03/08 01:16:30;;;;;;;53.70;29.93;;;;;;;;;;763623;184;619504;-69
2022/03/08 01:18:55;;;;;;;42.80;26.47;;;;;;;;;;750403;184;634201;-69
2022/03/08 01:21:21;;;;;;;44.65;27.13;;;;;;;;;;761017;184;618795;-69
2022/03/08 01:23:47;;;;;;;44.27;26.00;;;;;;;;;;755742;184;632375;-68
2022/03/08 01:26:14;;;;;;;47.37;27.13;;;;;;;;;;748548;185;644744;-69
2022/03/08 01:28:39;;;;;;;49.73;26.60;;;;;;;;;;753772;184;621970;-68
2022/03/08 01:31:05;;;;;;;46.13;27.93;;;;;;;;;;755678;184;627039;-68
2022/03/08 01:33:30;;;;;;;41.20;25.37;;;;;;;;;;751280;185;625969;-70
2022/03/08 01:35:56;;;;;;;43.97;26.13;;;;;;;;;;751477;185;627518;-69
2022/03/08 01:38:22;;;;;;;45.23;25.43;;;;;;;;;;752930;185;624597;-68
2022/03/08 01:40:48;;;;;;;44.50;23.77;;;;;;;;;;756962;184;609393;-69
2022/03/08 01:43:14;;;;;;;41.20;24.33;;;;;;;;;;754736;184;622697;-69
2022/03/08 01:45:40;;;;;;;41.57;24.17;;;;;;;;;;756646;184;615033;-69
2022/03/08 01:48:05;;;;;;;41.33;24.57;;;;;;;;;;762396;184;640947;-69
2022/03/08 01:50:31;;;;;;;41.77;24.43;;;;;;;;;;755704;184;623347;-68
2022/03/08 01:52:57;;;;;;;46.97;24.77;;;;;;;;;;751933;183;627768;-69
2022/03/08 01:55:25;;;;;;;47.50;25.73;;;;;;;;;;758330;183;659966;-68
2022/03/08 01:57:49;;;;;;;39.80;24.67;;;;;;;;;;762371;183;634558;-69
2022/03/08 02:00:15;;;;;;;46.23;24.67;;;;;;;;;;752859;184;624682;-69
2022/03/08 02:02:41;;;;;;;50.27;27.20;;;;;;;;;;750419;184;640038;-69
2022/03/08 02:05:07;;;;;;;44.17;25.63;;;;;;;;;;759691;184;618983;-68
2022/03/08 02:07:32;;;;;;;46.00;25.87;;;;;;;;;;750669;183;616765;-68
2022/03/08 02:09:58;;;;;;;40.37;25.07;;;;;;;;;;748984;184;625013;-69
2022/03/08 02:12:24;;;;;;;46.33;26.37;;;;;;;;;;755998;184;626726;-69
2022/03/08 02:14:50;;;;;;;47.23;26.30;;;;;;;;;;759284;183;640260;-68
2022/03/08 02:17:16;;;;;;;45.03;25.30;;;;;;;;;;753566;183;627853;-68
2022/03/08 02:19:42;;;;;;;45.40;26.70;;;;;;;;;;760800;184;631284;-69
2022/03/08 02:22:08;;;;;;;38.27;23.53;;;;;;;;;;760068;183;628961;-69
2022/03/08 02:24:33;;;;;;;55.93;26.67;;;;;;;;;;754466;184;724654;-69
2022/03/08 02:27:00;;;;;;;48.70;25.77;;;;;;;;;;762679;183;616718;-68
2022/03/08 02:29:25;;;;;;;40.53;24.97;;;;;;;;;;753772;184;639367;-69
2022/03/08 02:31:51;;;;;;;39.05;21.80;;;;;;;;;;755436;184;715322;-69
2022/03/08 02:34:17;;;;;;;41.60;22.43;;;;;;;;;;765014;184;621437;-69
2022/03/08 02:36:48;;;;;;;38.80;22.30;;;;;;;;;;762181;184;627132;-69
2022/03/08 02:39:14;;;;;;;42.27;24.40;;;;;;;;;;755200;183;623667;-69
2022/03/08 02:41:40;;;;;;;39.93;23.83;;;;;;;;;;751670;183;616974;-69
2022/03/08 02:44:06;;;;;;;37.97;24.80;;;;;;;;;;753890;185;635206;-68
2022/03/08 02:46:32;;;;;;;41.70;24.90;;;;;;;;;;757213;185;627843;-68
2022/03/08 02:48:58;;;;;;;45.70;23.90;;;;;;;;;;755830;184;641900;-68
2022/03/08 02:51:23;;;;;;;49.83;24.67;;;;;;;;;;755576;184;631773;-69
2022/03/08 02:53:49;;;;;;;43.53;23.23;;;;;;;;;;763016;184;627663;-69
2022/03/08 02:56:15;;;;;;;41.13;22.17;;;;;;;;;;758228;184;619199;-69
2022/03/08 02:58:41;;;;;;;38.33;24.75;;;;;;;;;;765300;184;643719;-70
2022/03/08 03:01:07;;;;;;;49.63;25.17;;;;;;;;;;762174;184;622612;-69
2022/03/08 03:03:33;;;;;;;47.03;26.80;;;;;;;;;;763208;183;629467;-68
2022/03/08 03:05:58;;;;;;;46.30;24.83;;;;;;;;;;759182;183;637383;-68
2022/03/08 03:08:24;;;;;;;51.27;25.60;;;;;;;;;;758561;183;840728;-69
2022/03/08 03:10:50;;;;;;;43.20;25.27;;;;;;;;;;769290;179;621467;-69
2022/03/08 03:13:16;;;;;;;49.10;25.30;;;;;;;;;;752273;184;627226;-68
2022/03/08 03:15:42;;;;;;;42.50;24.53;;;;;;;;;;756614;184;655168;-68
2022/03/08 03:18:08;;;;;;;46.40;25.80;;;;;;;;;;768778;184;627281;-68
2022/03/08 03:20:34;;;;;;;50.13;23.77;;;;;;;;;;760106;184;616805;-68
2022/03/08 03:23:00;;;;;;;50.33;25.83;;;;;;;;;;756046;184;623561;-69
2022/03/08 03:25:25;;;;;;;46.47;27.23;;;;;;;;;;759347;184;626201;-68
2022/03/08 03:27:51;;;;;;;49.90;26.87;;;;;;;;;;762590;183;623092;-68
2022/03/08 03:30:18;;;;;;;39.33;23.40;;;;;;;;;;751867;184;634449;-68
2022/03/08 03:32:43;;;;;;;45.90;26.07;;;;;;;;;;757015;184;640907;-69
2022/03/08 03:35:09;;;;;;;37.85;23.87;;;;;;;;;;749558;183;614996;-69
2022/03/08 03:37:35;;;;;;;40.73;23.87;;;;;;;;;;752528;183;628926;-69
2022/03/08 03:40:00;;;;;;;43.87;24.63;;;;;;;;;;753791;184;637144;-67
2022/03/08 03:42:26;;;;;;;45.07;26.47;;;;;;;;;;764842;184;626899;-68
2022/03/08 03:44:52;;;;;;;40.40;23.90;;;;;;;;;;758537;184;628898;-69
2022/03/08 03:47:18;;;;;;;42.10;24.90;;;;;;;;;;754344;184;622605;-69
2022/03/08 03:49:44;;;;;;;44.23;24.27;;;;;;;;;;762678;184;638241;-68
2022/03/08 03:52:10;;;;;;;45.13;23.47;;;;;;;;;;758991;184;628549;-69
2022/03/08 03:54:35;;;;;;;39.40;22.20;;;;;;;;;;755416;184;632658;-69
2022/03/08 03:57:02;;;;;;;38.33;22.47;;;;;;;;;;757249;184;616666;-69
2022/03/08 03:59:27;;;;;;;38.53;24.37;;;;;;;;;;757000;184;628756;-68
2022/03/08 04:01:53;;;;;;;35.57;22.53;;;;;;;;;;754550;184;629090;-69
2022/03/08 04:04:19;;;;;;;37.10;21.70;;;;;;;;;;755163;184;626313;-69
2022/03/08 04:06:46;;;;;;;42.30;22.50;;;;;;;;;;753887;184;636672;-68
2022/03/08 04:09:13;;;;;;;41.13;23.67;;;;;;;;;;753677;184;632878;-69
2022/03/08 04:11:37;;;;;;;33.80;20.73;;;;;;;;;;756474;184;636204;-68
2022/03/08 04:14:03;;;;;;;41.87;23.27;;;;;;;;;;758811;182;622480;-70
2022/03/08 04:16:30;;;;;;;35.57;21.00;;;;;;;;;;757922;184;629842;-69
2022/03/08 04:18:55;;;;;;;36.60;23.03;;;;;;;;;;753827;183;617364;-69
2022/03/08 04:21:21;;;;;;;31.30;20.37;;;;;;;;;;757469;184;628571;-69
2022/03/08 04:23:47;;;;;;;37.33;20.33;;;;;;;;;;755083;184;644271;-69
2022/03/08 04:26:12;;;;;;;37.80;20.27;;;;;;;;;;755843;183;630298;-69
2022/03/08 04:28:38;;;;;;;39.03;18.90;;;;;;;;;;758568;183;628015;-69
2022/03/08 04:31:04;;;;;;;31.77;20.13;;;;;;;;;;756599;183;633555;-69
2022/03/08 04:33:30;;;;;;;32.87;18.40;;;;;;;;;;755917;184;635455;-69
2022/03/08 04:35:56;;;;;;;34.67;19.90;;;;;;;;;;755435;184;630400;-69
2022/03/08 04:38:22;;;;;;;36.30;19.70;;;;;;;;;;760387;183;641519;-69
2022/03/08 04:40:48;;;;;;;34.40;19.80;;;;;;;;;;757855;183;637716;-69
2022/03/08 04:43:13;;;;;;;33.87;18.73;;;;;;;;;;753852;184;633224;-69
2022/03/08 04:45:39;;;;;;;34.13;20.10;;;;;;;;;;759527;184;625452;-69
2022/03/08 04:48:05;;;;;;;38.63;20.00;;;;;;;;;;758237;183;631936;-69
2022/03/08 04:50:31;;;;;;;39.40;20.33;;;;;;;;;;753841;184;628044;-69
2022/03/08 04:52:57;;;;;;;34.10;18.77;;;;;;;;;;766744;184;628501;-69
2022/03/08 04:55:23;;;;;;;38.27;18.70;;;;;;;;;;757528;184;618426;-69
2022/03/08 04:57:49;;;;;;;32.70;18.20;;;;;;;;;;756884;184;620463;-69
2022/03/08 05:00:15;;;;;;;31.00;18.00;;;;;;;;;;759577;184;636548;-68
2022/03/08 05:02:41;;;;;;;35.10;20.03;;;;;;;;;;755893;184;622566;-69
2022/03/08 05:05:08;;;;;;;35.07;19.50;;;;;;;;;;755215;184;623448;-69
2022/03/08 05:07:33;;;;;;;33.60;19.37;;;;;;;;;;753298;184;641039;-69
2022/03/08 05:09:59;;;;;;;35.30;19.53;;;;;;;;;;757897;184;648782;-69
2022/03/08 05:12:25;;;;;;;35.27;19.33;;;;;;;;;;755163;184;655265;-68
2022/03/08 05:14:50;;;;;;;37.60;21.97;;;;;;;;;;754840;184;630619;-68
2022/03/08 05:17:16;;;;;;;35.77;20.17;;;;;;;;;;762756;184;628617;-69
2022/03/08 05:19:42;;;;;;;39.47;20.30;;;;;;;;;;757475;184;621450;-69
2022/03/08 05:22:08;;;;;;;36.40;20.87;;;;;;;;;;756225;184;629996;-69
2022/03/08 05:24:34;;;;;;;34.47;20.83;;;;;;;;;;757257;183;641960;-69
2022/03/08 05:27:00;;;;;;;41.13;20.60;;;;;;;;;;758167;182;630220;-69
2022/03/08 05:29:26;;;;;;;37.67;21.23;;;;;;;;;;758283;183;828230;-69
2022/03/08 05:31:51;;;;;;;36.30;22.07;;;;;;;;;;757344;184;631166;-68
2022/03/08 05:34:17;;;;;;;40.40;20.70;;;;;;;;;;757771;184;646380;-68
2022/03/08 05:36:43;;;;;;;39.57;22.10;;;;;;;;;;757104;184;626803;-68
2022/03/08 05:39:09;;;;;;;41.83;21.70;;;;;;;;;;757982;184;673305;-69
2022/03/08 05:41:35;;;;;;;40.67;23.43;;;;;;;;;;762423;184;629009;-68
2022/03/08 05:44:01;;;;;;;35.83;21.20;;;;;;;;;;758992;184;628014;-69
2022/03/08 05:46:26;;;;;;;46.27;23.33;;;;;;;;;;756456;184;625003;-69
2022/03/08 05:48:52;;;;;;;41.30;23.23;;;;;;;;;;760687;184;628855;-69
2022/03/08 05:51:18;;;;;;;42.20;23.40;;;;;;;;;;754817;184;642066;-68
2022/03/08 05:53:44;;;;;;;49.87;24.57;;;;;;;;;;755877;184;630282;-69
2022/03/08 05:56:11;;;;;;;41.83;23.67;;;;;;;;;;762086;182;633602;-68
2022/03/08 05:58:36;;;;;;;46.30;24.67;;;;;;;;;;752930;183;636661;-68
2022/03/08 06:01:02;;;;;;;44.73;26.17;;;;;;;;;;756830;183;632129;-68
2022/03/08 06:03:28;;;;;;;39.37;24.40;;;;;;;;;;755099;184;617007;-69
2022/03/08 06:05:54;;;;;;;39.30;22.63;;;;;;;;;;757435;184;642418;-69
2022/03/08 06:08:19;;;;;;;46.10;24.87;;;;;;;;;;752757;184;622014;-69
2022/03/08 06:10:45;;;;;;;48.67;24.67;;;;;;;;;;757987;184;636480;-68
2022/03/08 06:13:11;;;;;;;59.87;28.77;;;;;;;;;;756915;185;636967;-69
2022/03/08 06:15:37;;;;;;;53.83;29.90;;;;;;;;;;754826;183;636818;-68
2022/03/08 06:18:03;;;;;;;60.50;30.83;;;;;;;;;;757034;183;628424;-68
2022/03/08 06:20:29;;;;;;;50.20;28.80;;;;;;;;;;759710;184;631016;-69
2022/03/08 06:22:55;;;;;;;71.37;34.20;;;;;;;;;;753035;184;637014;-68
2022/03/08 06:25:20;;;;;;;65.23;33.87;;;;;;;;;;754353;184;632010;-69
2022/03/08 06:27:46;;;;;;;66.20;33.70;;;;;;;;;;757854;184;627791;-68
2022/03/08 06:30:12;;;;;;;68.93;35.03;;;;;;;;;;755840;184;630069;-68
2022/03/08 06:32:38;;;;;;;65.23;32.50;;;;;;;;;;755533;184;627243;-68
2022/03/08 06:35:05;;;;;;;70.83;35.63;;;;;;;;;;755136;184;619847;-68
2022/03/08 06:37:31;;;;;;;74.00;36.60;;;;;;;;;;759453;184;620865;-68
2022/03/08 06:39:57;;;;;;;72.20;36.17;;;;;;;;;;758197;184;636645;-68
2022/03/08 06:42:22;;;;;;;69.33;38.10;;;;;;;;;;757525;184;624326;-68
2022/03/08 06:44:48;;;;;;;64.10;35.77;;;;;;;;;;760742;184;646073;-68
2022/03/08 06:47:14;;;;;;;71.40;36.73;;;;;;;;;;759905;183;625000;-68
2022/03/08 06:49:40;;;;;;;82.00;36.97;;;;;;;;;;754209;184;624500;-68
2022/03/08 06:52:07;;;;;;;82.60;40.73;;;;;;;;;;756388;184;632676;-67
2022/03/08 06:54:32;;;;;;;93.10;46.10;;;;;;;;;;764253;180;629548;-67
2022/03/08 06:56:58;;;;;;;90.57;42.83;;;;;;;;;;752865;183;625653;-67
2022/03/08 06:59:25;;;;;;;94.63;46.67;;;;;;;;;;753706;184;628962;-67
2022/03/08 07:01:49;;;;;;;96.60;43.60;;;;;;;;;;755027;184;623844;-68
2022/03/08 07:04:15;;;;;;;71.10;35.08;;;;;;;;;;757865;183;635704;-68
2022/03/08 07:06:41;;;;;;;72.87;34.97;;;;;;;;;;753670;184;632372;-66
2022/03/08 07:09:07;;;;;;;62.90;36.23;;;;;;;;;;760407;183;618671;-67
2022/03/08 07:11:36;;;;;;;59.53;32.70;;;;;;;;;;757541;184;669699;-66
2022/03/08 07:13:59;;;;;;;71.90;31.17;;;;;;;;;;754077;184;635514;-65
2022/03/08 07:16:25;;;;;;;62.10;31.00;;;;;;;;;;760416;184;623194;-64
2022/03/08 07:18:50;;;;;;;57.03;28.60;;;;;;;;;;763781;184;630324;-65
2022/03/08 07:21:16;;;;;;;55.70;27.50;;;;;;;;;;752223;184;877103;-65
2022/03/08 07:23:42;;;;;;;53.57;30.43;;;;;;;;;;756956;184;625953;-63
2022/03/08 07:26:09;;;;;;;56.70;32.33;;;;;;;;;;758645;184;617021;-64
2022/03/08 07:28:34;;;;;;;66.40;39.70;;;;;;;;;;754100;184;635672;-64
2022/03/08 07:31:00;;;;;;;69.03;32.33;;;;;;;;;;754633;184;645113;-63
2022/03/08 07:33:25;;;;;;;97.50;46.67;;;;;;;;;;760930;184;636172;-63
2022/03/08 07:35:51;;;;;;;68.37;34.67;;;;;;;;;;756246;183;624623;-63
2022/03/08 07:38:17;;;;;;;61.00;31.40;;;;;;;;;;757184;184;616943;-63
2022/03/08 07:40:43;;;;;;;57.60;18.90;;;;;;;;;;759324;184;656829;-64
2022/03/08 07:43:09;;;;;;;48.47;26.20;;;;;;;;;;755022;184;629680;-62
2022/03/08 07:45:36;;;;;;;44.23;23.17;;;;;;;;;;755128;184;626726;-64
2022/03/08 07:48:01;;;;;;;47.57;24.53;;;;;;;;;;754533;184;634180;-64
2022/03/08 07:50:26;;;;;;;42.67;21.87;;;;;;;;;;753044;186;624161;-65
2022/03/08 07:52:52;;;;;;;41.80;19.50;;;;;;;;;;753852;183;626845;-64
2022/03/08 07:55:18;;;;;;;51.00;22.20;;;;;;;;;;759169;183;646689;-65
2022/03/08 07:57:44;;;;;;;34.17;17.40;;;;;;;;;;758769;184;800031;-65
2022/03/08 08:00:10;;;;;;;36.70;17.73;;;;;;;;;;756663;184;694458;-67
2022/03/08 08:02:37;;;;;;;33.43;17.77;;;;;;;;;;755124;183;616907;-65
2022/03/08 08:05:02;;;;;;;28.77;15.67;;;;;;;;;;761705;184;614418;-65
2022/03/08 08:07:28;;;;;;;34.73;18.90;;;;;;;;;;752637;183;622773;-65
2022/03/08 08:09:54;;;;;;;25.70;14.53;;;;;;;;;;764855;183;617402;-66
2022/03/08 08:12:19;;;;;;;37.83;17.70;;;;;;;;;;755800;184;626324;-66
2022/03/08 08:14:45;;;;;;;31.23;15.90;;;;;;;;;;749349;183;625457;-65
2022/03/08 08:17:11;;;;;;;27.23;16.23;;;;;;;;;;760759;183;635020;-66
2022/03/08 08:19:37;;;;;;;33.33;17.30;;;;;;;;;;762651;184;630901;-66
2022/03/08 08:22:03;;;;;;;18.70;8.50;;;;;;;;;;757937;184;628223;-66
2022/03/08 08:24:29;;;;;;;27.40;17.37;;;;;;;;;;754391;184;636238;-66
2022/03/08 08:26:55;;;;;;;19.83;10.90;;;;;;;;;;764174;184;630694;-66
2022/03/08 08:29:20;;;;;;;25.63;16.50;;;;;;;;;;757794;184;616247;-66
2022/03/08 08:31:46;;;;;;;36.97;18.17;;;;;;;;;;754702;184;626710;-66
2022/03/08 08:34:12;;;;;;;21.87;13.52;;;;;;;;;;750433;183;1680615;-66
2022/03/08 08:36:39;;;;;;;23.77;11.60;;;;;;;;;;760691;183;622317;-65
2022/03/08 08:39:05;;;;;;;32.73;16.97;;;;;;;;;;756281;184;627250;-66
2022/03/08 08:41:31;;;;;;;37.67;18.50;;;;;;;;;;755574;184;624817;-65
2022/03/08 08:43:56;;;;;;;39.63;21.53;;;;;;;;;;755617;184;629892;-65
2022/03/08 08:46:22;;;;;;;49.07;28.73;;;;;;;;;;754023;184;624708;-64
2022/03/08 08:48:48;;;;;;;46.60;24.43;;;;;;;;;;757364;184;633721;-67
2022/03/08 08:51:14;;;;;;;41.40;23.10;;;;;;;;;;757047;184;630182;-65
2022/03/08 08:53:40;;;;;;;25.97;15.13;;;;;;;;;;761429;184;630060;-65
2022/03/08 08:56:05;;;;;;;37.33;18.63;;;;;;;;;;762510;184;624686;-67
2022/03/08 08:58:31;;;;;;;35.47;19.37;;;;;;;;;;764065;184;628878;-65
2022/03/08 09:00:57;;;;;;;32.60;17.43;;;;;;;;;;754733;183;634966;-65
2022/03/08 09:03:23;;;;;;;25.67;12.10;;;;;;;;;;752716;184;628524;-66
2022/03/08 09:05:49;;;;;;;29.83;13.40;;;;;;;;;;753100;184;623987;-65
2022/03/08 09:08:15;;;;;;;58.23;23.60;;;;;;;;;;758124;184;625534;-64
2022/03/08 09:10:40;;;;;;;79.87;36.47;;;;;;;;;;756764;184;629249;-66
2022/03/08 09:13:06;;;;;;;38.47;19.77;;;;;;;;;;761387;183;625265;-66
2022/03/08 09:15:32;;;;;;;19.47;11.43;;;;;;;;;;757161;184;627099;-64
2022/03/08 09:17:58;;;;;;;17.50;11.07;;;;;;;;;;760237;184;622836;-66
2022/03/08 09:20:26;;;;;;;13.63;8.57;;;;;;;;;;755338;184;625042;-66
2022/03/08 09:22:50;;;;;;;17.10;8.50;;;;;;;;;;755185;184;621986;-66
2022/03/08 09:25:16;;;;;;;14.00;6.57;;;;;;;;;;760073;184;620163;-66
2022/03/08 09:27:41;;;;;;;33.37;7.60;;;;;;;;;;756184;184;633778;-65
2022/03/08 09:30:08;;;;;;;14.33;6.60;;;;;;;;;;754394;184;627402;-67
2022/03/08 09:32:34;;;;;;;10.40;5.70;;;;;;;;;;759635;184;626318;-65
2022/03/08 09:34:59;;;;;;;15.50;6.50;;;;;;;;;;756456;184;630514;-66
2022/03/08 09:37:25;;;;;;;9.60;5.70;;;;;;;;;;756170;184;627033;-66
2022/03/08 09:39:51;;;;;;;7.37;4.30;;;;;;;;;;756658;184;619104;-64
2022/03/08 09:42:17;;;;;;;15.07;8.73;;;;;;;;;;755858;184;621976;-66
2022/03/08 09:44:43;;;;;;;12.00;7.90;;;;;;;;;;753885;184;620000;-66
2022/03/08 09:47:10;;;;;;;15.53;8.20;;;;;;;;;;758083;183;695856;-66
2022/03/08 09:49:36;;;;;;;9.57;5.13;;;;;;;;;;759423;184;628423;-66
2022/03/08 09:52:02;;;;;;;11.38;5.55;;;;;;;;;;756189;184;623934;-66
2022/03/08 09:54:27;;;;;;;14.00;5.77;;;;;;;;;;757671;184;628322;-66
2022/03/08 09:56:53;;;;;;;21.80;10.80;;;;;;;;;;759731;184;619262;-66
2022/03/08 09:59:19;;;;;;;17.80;9.53;;;;;;;;;;758502;184;637401;-65
2022/03/08 10:01:45;;;;;;;12.87;8.77;;;;;;;;;;755126;184;634029;-65
2022/03/08 10:04:11;;;;;;;16.52;8.73;;;;;;;;;;755578;184;628900;-66
2022/03/08 10:06:38;;;;;;;11.37;6.97;;;;;;;;;;750259;186;618831;-66
2022/03/08 10:09:09;;;;;;;18.77;12.57;;;;;;;;;;757678;184;627155;-65
2022/03/08 10:11:35;;;;;;;77.33;40.50;;;;;;;;;;754444;183;629541;-66
2022/03/08 10:14:01;;;;;;;10.80;7.30;;;;;;;;;;758679;184;624298;-64
2022/03/08 10:16:41;;;;;;;8.67;5.37;;;;;;;;;;755403;184;625860;-66
2022/03/08 10:18:54;;;;;;;21.60;10.53;;;;;;;;;;751136;183;634116;-65
2022/03/08 10:21:25;;;;;;;16.45;8.45;;;;;;;;;;768628;183;636718;-65
2022/03/08 10:23:52;;;;;;;14.40;7.30;;;;;;;;;;758162;183;616030;-64
2022/03/08 10:26:16;;;;;;;15.63;8.13;;;;;;;;;;751845;184;623072;-65
2022/03/08 10:28:43;;;;;;;24.80;13.40;;;;;;;;;;758135;183;639248;-66
2022/03/08 10:31:09;;;;;;;47.63;22.30;;;;;;;;;;757716;184;613465;-66
2022/03/08 10:33:36;;;;;;;25.17;15.07;;;;;;;;;;757178;184;631731;-65
2022/03/08 10:36:01;;;;;;;14.40;7.13;;;;;;;;;;760585;183;639473;-66
2022/03/08 10:38:27;;;;;;;19.20;9.83;;;;;;;;;;758602;184;618980;-65
2022/03/08 10:40:52;;;;;;;9.73;5.17;;;;;;;;;;757908;184;629461;-65
2022/03/08 10:43:18;;;;;;;18.33;9.93;;;;;;;;;;752580;184;626106;-65
2022/03/08 10:45:45;;;;;;;9.83;5.13;;;;;;;;;;751484;186;636616;-65
2022/03/08 10:48:13;;;;;;;17.17;7.37;;;;;;;;;;759765;184;630218;-66
2022/03/08 10:50:37;;;;;;;16.33;8.40;;;;;;;;;;755223;184;633152;-66
2022/03/08 10:53:02;;;;;;;31.60;14.10;;;;;;;;;;756735;185;629304;-65
2022/03/08 10:55:29;;;;;;;14.07;9.03;;;;;;;;;;761694;184;630850;-66
2022/03/08 10:57:56;;;;;;;11.63;6.83;;;;;;;;;;761390;184;628288;-65
2022/03/08 11:00:23;;;;;;;14.07;9.60;;;;;;;;;;764341;184;623707;-66
2022/03/08 11:02:49;;;;;;;21.90;13.23;;;;;;;;;;757119;184;614755;-65
2022/03/08 11:05:14;;;;;;;22.63;12.40;;;;;;;;;;754542;184;637208;-66
2022/03/08 11:07:40;;;;;;;32.70;14.20;;;;;;;;;;752628;184;628736;-65
2022/03/08 11:10:06;;;;;;;22.80;13.60;;;;;;;;;;755190;184;620901;-63
2022/03/08 11:12:32;;;;;;;47.20;23.97;;;;;;;;;;760883;183;619155;-65
2022/03/08 11:14:58;;;;;;;42.50;23.20;;;;;;;;;;759289;183;624108;-66
2022/03/08 11:17:24;;;;;;;27.17;14.40;;;;;;;;;;755711;184;635913;-66
2022/03/08 11:19:50;;;;;;;19.23;13.30;;;;;;;;;;759826;184;641956;-64
2022/03/08 11:22:17;;;;;;;17.73;12.30;;;;;;;;;;756186;184;629855;-66
2022/03/08 11:24:43;;;;;;;17.17;11.00;;;;;;;;;;758517;184;619216;-66
2022/03/08 11:27:09;;;;;;;16.17;10.30;;;;;;;;;;761367;184;618572;-65
2022/03/08 11:29:35;;;;;;;26.10;16.73;;;;;;;;;;753567;184;635957;-65
2022/03/08 11:32:01;;;;;;;16.00;9.03;;;;;;;;;;756459;184;673523;-65
2022/03/08 11:34:26;;;;;;;14.47;10.10;;;;;;;;;;757425;184;635927;-66
2022/03/08 11:36:56;;;;;;;12.13;7.40;;;;;;;;;;759650;183;630970;-65
2022/03/08 11:39:20;;;;;;;12.90;8.03;;;;;;;;;;756055;184;614837;-66
2022/03/08 11:41:46;;;;;;;10.93;6.47;;;;;;;;;;757065;184;632291;-65
2022/03/08 11:44:16;;;;;;;14.10;8.37;;;;;;;;;;763460;183;613522;-66
2022/03/08 11:46:42;;;;;;;15.83;8.37;;;;;;;;;;750880;183;641024;-65
2022/03/08 11:49:08;;;;;;;11.80;6.60;;;;;;;;;;755678;183;629583;-66
2022/03/08 11:51:34;;;;;;;12.80;8.00;;;;;;;;;;754730;184;643898;-66
2022/03/08 11:54:00;;;;;;;12.07;6.90;;;;;;;;;;765733;183;621094;-67
2022/03/08 11:56:26;;;;;;;9.70;6.60;;;;;;;;;;757728;183;626042;-66
2022/03/08 11:58:51;;;;;;;12.17;7.37;;;;;;;;;;757677;184;638139;-66
2022/03/08 12:01:24;;;;;;;11.97;8.93;;;;;;;;;;755299;185;622943;-66
2022/03/08 12:03:55;;;;;;;8.93;6.00;;;;;;;;;;750044;185;678932;-65
2022/03/08 12:06:20;;;;;;;21.67;8.20;;;;;;;;;;753048;184;629182;-66
2022/03/08 12:08:46;;;;;;;10.13;6.93;;;;;;;;;;752017;183;699264;-65
2022/03/08 12:11:29;;;;;;;11.40;7.80;;;;;;;;;;754643;184;627421;-66
2022/03/08 12:14:00;;;;;;;17.17;6.93;;;;;;;;;;752337;184;641872;-66
2022/03/08 12:16:26;;;;;;;17.33;6.47;;;;;;;;;;750055;183;745558;-65
2022/03/08 12:18:52;;;;;;;9.10;7.10;;;;;;;;;;761784;184;629300;-66
2022/03/08 12:21:32;;;;;;;5.20;3.23;;;;;;;;;;756647;184;629895;-65
2022/03/08 12:23:58;;;;;;;20.67;7.40;;;;;;;;;;761860;184;636249;-66
2022/03/08 12:26:40;;;;;;;12.67;7.43;;;;;;;;;;752640;184;627380;-66
2022/03/08 12:29:07;;;;;;;10.27;6.67;;;;;;;;;;750204;184;616977;-67
2022/03/08 12:31:34;;;;;;;9.60;6.57;;;;;;;;;;752923;183;629163;-66
2022/03/08 12:34:00;;;;;;;8.80;6.50;;;;;;;;;;753211;184;620888;-64
2022/03/08 12:36:25;;;;;;;12.33;6.90;;;;;;;;;;761698;182;703236;-65
2022/03/08 12:38:51;;;;;;;8.70;4.93;;;;;;;;;;755373;183;628589;-67
2022/03/08 12:41:17;;;;;;;10.57;7.50;;;;;;;;;;755747;183;634752;-64
2022/03/08 12:43:43;;;;;;;10.43;7.60;;;;;;;;;;761002;183;633499;-65
2022/03/08 12:46:09;;;;;;;14.83;8.77;;;;;;;;;;762899;184;702844;-66
2022/03/08 12:48:35;;;;;;;12.20;8.97;;;;;;;;;;752776;183;628846;-66
2022/03/08 12:51:01;;;;;;;9.07;6.93;;;;;;;;;;756824;184;622687;-66
2022/03/08 12:53:27;;;;;;;11.93;9.05;;;;;;;;;;753295;183;626131;-65
2022/03/08 12:55:53;;;;;;;10.40;7.40;;;;;;;;;;747263;184;617294;-65
2022/03/08 12:58:20;;;;;;;13.20;9.47;;;;;;;;;;758298;185;621951;-66
2022/03/08 13:00:45;;;;;;;12.03;7.93;;;;;;;;;;761739;184;629113;-65
2022/03/08 13:03:12;;;;;;;11.83;7.27;;;;;;;;;;754842;184;631105;-66
2022/03/08 13:05:38;;;;;;;10.67;6.83;;;;;;;;;;754737;184;636348;-66
2022/03/08 13:08:05;;;;;;;10.63;7.00;;;;;;;;;;764956;183;616140;-66
2022/03/08 13:10:30;;;;;;;6.27;4.27;;;;;;;;;;756401;184;636768;-66
2022/03/08 13:12:56;;;;;;;7.40;4.27;;;;;;;;;;751603;185;640472;-65
2022/03/08 13:15:23;;;;;;;10.60;7.80;;;;;;;;;;755754;185;618394;-64
2022/03/08 13:17:49;;;;;;;11.80;7.50;;;;;;;;;;752539;185;630380;-65
2022/03/08 13:20:20;;;;;;;9.07;6.32;;;;;;;;;;755386;184;629419;-65
2022/03/08 13:22:46;;;;;;;11.27;7.50;;;;;;;;;;755651;184;774339;-65
2022/03/08 13:25:12;;;;;;;13.93;8.57;;;;;;;;;;755284;184;614998;-65
2022/03/08 13:27:43;;;;;;;12.47;9.13;;;;;;;;;;757669;184;636166;-65
2022/03/08 13:30:15;;;;;;;11.77;7.40;;;;;;;;;;758822;184;626971;-65
2022/03/08 13:32:41;;;;;;;11.83;7.67;;;;;;;;;;753814;184;637558;-65
2022/03/08 13:35:07;;;;;;;18.97;9.33;;;;;;;;;;759484;184;634037;-66
2022/03/08 13:37:38;;;;;;;11.10;8.17;;;;;;;;;;754621;184;634359;-65
2022/03/08 13:40:04;;;;;;;17.17;9.20;;;;;;;;;;755819;183;634126;-67
2022/03/08 13:42:31;;;;;;;17.70;9.40;;;;;;;;;;755619;184;615006;-65
2022/03/08 13:44:56;;;;;;;14.20;8.80;;;;;;;;;;759175;184;634256;-65
2022/03/08 13:47:22;;;;;;;13.50;9.53;;;;;;;;;;755344;184;663217;-66
2022/03/08 13:49:48;;;;;;;13.50;9.13;;;;;;;;;;756845;183;626208;-66
2022/03/08 13:52:14;;;;;;;12.97;9.37;;;;;;;;;;767316;183;636715;-65
2022/03/08 13:54:40;;;;;;;10.20;7.07;;;;;;;;;;754558;183;629456;-65
2022/03/08 13:57:05;;;;;;;14.60;9.70;;;;;;;;;;754277;183;632808;-64
2022/03/08 13:59:31;;;;;;;17.33;11.57;;;;;;;;;;763753;183;633809;-65
2022/03/08 14:02:07;;;;;;;12.97;7.23;;;;;;;;;;764072;184;614902;-65